createdAt,value
2017-02-24T00:00:42.419Z,48.21
2017-02-24T00:01:51.748Z,48.3
2017-02-24T00:03:01.505Z,48.39
2017-02-24T00:04:10.853Z,48.21
2017-02-24T00:05:21.043Z,48.11
2017-02-24T00:06:30.423Z,48.11
2017-02-24T00:07:41.722Z,48.11
2017-02-24T00:08:51.043Z,48.3
2017-02-24T00:10:00.372Z,48.49
2017-02-24T00:11:09.693Z,48.21
2017-02-24T00:12:19.055Z,48.39
2017-02-24T00:13:28.379Z,48.68
2017-02-24T00:14:37.685Z,49.16
2017-02-24T00:15:47.026Z,50.21
2017-02-24T00:16:56.340Z,50.31
2017-02-24T00:18:05.724Z,50.12
2017-02-24T00:19:15.922Z,50.81
2017-02-24T00:20:25.263Z,50.6
2017-02-24T00:21:35.458Z,50.91
2017-02-24T00:22:44.785Z,51.29
2017-02-24T00:23:54.142Z,51.29
2017-02-24T00:25:03.510Z,51.87
2017-02-24T00:26:12.837Z,51.58
2017-02-24T00:27:22.608Z,51.58
2017-02-24T00:28:32.795Z,51.58
2017-02-24T00:29:42.164Z,51.87
2017-02-24T00:30:51.920Z,51.97
2017-02-24T00:32:01.670Z,51.87
2017-02-24T00:33:10.996Z,51.68
2017-02-24T00:34:20.317Z,51.68
2017-02-24T00:35:29.710Z,51.77
2017-02-24T00:36:39.056Z,51.97
2017-02-24T00:37:48.392Z,51.87
2017-02-24T00:38:58.170Z,52.15
2017-02-24T00:40:07.514Z,52.06
2017-02-24T00:41:17.324Z,52.44
2017-02-24T00:42:26.640Z,51.97
2017-02-24T00:43:36.854Z,52.25
2017-02-24T00:44:46.190Z,52.34
2017-02-24T00:45:56.380Z,52.06
2017-02-24T00:47:06.654Z,52.06
2017-02-24T00:48:15.991Z,52.54
2017-02-24T00:49:25.344Z,52.28
2017-02-24T00:50:34.669Z,52.18
2017-02-24T00:51:44.438Z,52.18
2017-02-24T00:52:54.255Z,52.28
2017-02-24T00:54:03.599Z,52.18
2017-02-24T00:55:13.790Z,52.56
2017-02-24T00:56:23.543Z,51.99
2017-02-24T00:57:33.294Z,52.28
2017-02-24T00:58:43.097Z,52.47
2017-02-24T00:59:52.422Z,52.56
2017-02-24T01:01:01.753Z,52.47
2017-02-24T01:02:11.088Z,52.47
2017-02-24T01:03:20.854Z,52.28
2017-02-24T01:04:30.663Z,52.28
2017-02-24T01:05:39.984Z,52.28
2017-02-24T01:06:49.312Z,52.47
2017-02-24T01:07:59.070Z,52.47
2017-02-24T01:09:08.828Z,52.28
2017-02-24T01:10:18.193Z,52.37
2017-02-24T01:11:27.522Z,52.56
2017-02-24T01:12:36.871Z,52.56
2017-02-24T01:13:46.216Z,52.56
2017-02-24T01:14:55.977Z,52.18
2017-02-24T01:16:05.355Z,52.37
2017-02-24T01:17:15.552Z,52.37
2017-02-24T01:18:25.337Z,52.28
2017-02-24T01:19:35.102Z,52.95
2017-02-24T01:20:44.420Z,52.66
2017-02-24T01:21:54.252Z,52.95
2017-02-24T01:23:04.021Z,53.33
2017-02-24T01:24:13.338Z,52.95
2017-02-24T01:25:22.664Z,53.14
2017-02-24T01:26:32.005Z,53.33
2017-02-24T01:27:41.818Z,53.33
2017-02-24T01:28:51.136Z,52.95
2017-02-24T01:30:00.472Z,52.95
2017-02-24T01:31:09.826Z,52.95
2017-02-24T01:32:19.599Z,53.04
2017-02-24T01:33:29.404Z,53.23
2017-02-24T01:34:38.750Z,52.95
2017-02-24T01:35:48.071Z,52.95
2017-02-24T01:36:58.280Z,52.95
2017-02-24T01:38:07.604Z,52.95
2017-02-24T01:39:16.981Z,53.14
2017-02-24T01:40:26.318Z,52.95
2017-02-24T01:41:35.636Z,52.95
2017-02-24T01:42:44.997Z,52.95
2017-02-24T01:43:54.322Z,52.95
2017-02-24T01:45:04.340Z,53.04
2017-02-24T01:46:13.660Z,53.04
2017-02-24T01:47:22.969Z,52.85
2017-02-24T01:48:32.291Z,52.95
2017-02-24T01:49:41.612Z,53.14
2017-02-24T01:50:50.980Z,53.14
2017-02-24T01:52:00.754Z,53.04
2017-02-24T01:53:10.109Z,53.42
2017-02-24T01:54:20.304Z,53.33
2017-02-24T01:55:30.081Z,53.52
2017-02-24T01:56:40.347Z,53.62
2017-02-24T01:57:49.678Z,53.23
2017-02-24T01:58:59.014Z,53.62
2017-02-24T02:00:09.229Z,53.42
2017-02-24T02:01:18.543Z,53.62
2017-02-24T02:02:28.809Z,53.14
2017-02-24T02:03:38.554Z,53.33
2017-02-24T02:04:48.334Z,53.42
2017-02-24T02:05:58.089Z,53.42
2017-02-24T02:07:07.422Z,53.14
2017-02-24T02:08:17.218Z,52.95
2017-02-24T02:09:26.980Z,53.23
2017-02-24T02:10:36.297Z,53.42
2017-02-24T02:11:46.054Z,53.52
2017-02-24T02:12:55.421Z,53.23
2017-02-24T02:14:05.236Z,53.52
2017-02-24T02:15:14.569Z,53.52
2017-02-24T02:16:24.331Z,53.52
2017-02-24T02:17:33.656Z,53.62
2017-02-24T02:18:42.969Z,53.71
2017-02-24T02:19:52.334Z,53.23
2017-02-24T02:21:01.659Z,53.33
2017-02-24T02:22:10.988Z,53.33
2017-02-24T02:23:21.192Z,53.52
2017-02-24T02:24:30.959Z,53.33
2017-02-24T02:25:40.332Z,53.33
2017-02-24T02:26:50.553Z,53.62
2017-02-24T02:27:59.882Z,53.52
2017-02-24T02:29:10.532Z,53.71
2017-02-24T02:30:19.905Z,53.42
2017-02-24T02:31:29.697Z,53.42
2017-02-24T02:32:39.030Z,53.52
2017-02-24T02:33:49.250Z,53.23
2017-02-24T02:34:58.570Z,53.42
2017-02-24T02:36:08.326Z,53.71
2017-02-24T02:37:18.574Z,53.71
2017-02-24T02:38:28.789Z,53.71
2017-02-24T02:39:38.526Z,53.42
2017-02-24T02:40:48.299Z,53.42
2017-02-24T02:41:58.063Z,53.52
2017-02-24T02:43:07.433Z,53.71
2017-02-24T02:44:17.194Z,53.23
2017-02-24T02:45:26.515Z,53.81
2017-02-24T02:46:35.820Z,53.62
2017-02-24T02:47:45.138Z,53.42
2017-02-24T02:48:54.959Z,53.33
2017-02-24T02:50:04.288Z,53.81
2017-02-24T02:51:14.048Z,53.81
2017-02-24T02:52:23.815Z,53.91
2017-02-24T02:53:34.011Z,54
2017-02-24T02:54:43.393Z,53.81
2017-02-24T02:55:53.606Z,53.71
2017-02-24T02:57:03.373Z,54
2017-02-24T02:58:12.708Z,54.1
2017-02-24T02:59:22.473Z,53.71
2017-02-24T03:00:32.715Z,53.91
2017-02-24T03:01:42.028Z,54
2017-02-24T03:02:51.357Z,54.1
2017-02-24T03:04:00.682Z,53.81
2017-02-24T03:05:10.015Z,54.38
2017-02-24T03:06:19.400Z,54
2017-02-24T03:07:29.158Z,53.91
2017-02-24T03:08:38.939Z,54.16
2017-02-24T03:09:48.699Z,53.97
2017-02-24T03:10:58.454Z,54.19
2017-02-24T03:12:07.814Z,54.16
2017-02-24T03:13:17.147Z,53.88
2017-02-24T03:14:26.473Z,54.07
2017-02-24T03:15:36.668Z,54.16
2017-02-24T03:16:45.973Z,53.88
2017-02-24T03:17:56.216Z,54.26
2017-02-24T03:19:06.401Z,53.97
2017-02-24T03:20:16.159Z,53.91
2017-02-24T03:21:25.502Z,54.16
2017-02-24T03:22:35.256Z,54.36
2017-02-24T03:23:44.662Z,54.64
2017-02-24T03:24:54.437Z,54.26
2017-02-24T03:26:04.640Z,54.36
2017-02-24T03:27:14.397Z,54.55
2017-02-24T03:28:24.574Z,54.45
2017-02-24T03:29:33.967Z,54.64
2017-02-24T03:30:43.723Z,54.64
2017-02-24T03:31:54.350Z,54.45
2017-02-24T03:33:04.555Z,54.45
2017-02-24T03:34:14.755Z,54.36
2017-02-24T03:35:24.561Z,54.26
2017-02-24T03:36:34.744Z,54.26
2017-02-24T03:37:44.930Z,54.36
2017-02-24T03:38:54.680Z,54.26
2017-02-24T03:40:04.429Z,54.36
2017-02-24T03:41:14.686Z,54.36
2017-02-24T03:42:24.879Z,54.26
2017-02-24T03:43:34.644Z,54.36
2017-02-24T03:44:44.837Z,54.36
2017-02-24T03:45:55.010Z,54.36
2017-02-24T03:47:04.367Z,54.36
2017-02-24T03:48:14.136Z,54.36
2017-02-24T03:49:23.905Z,54.36
2017-02-24T03:50:34.108Z,54.36
2017-02-24T03:51:43.883Z,54.36
2017-02-24T03:52:53.671Z,54.45
2017-02-24T03:54:03.864Z,53.97
2017-02-24T03:55:13.662Z,54.36
2017-02-24T03:56:23.871Z,54.36
2017-02-24T03:57:33.633Z,53.97
2017-02-24T03:58:43.010Z,54.16
2017-02-24T03:59:52.329Z,54.16
2017-02-24T04:01:02.510Z,54.16
2017-02-24T04:02:12.285Z,54.26
2017-02-24T04:03:22.053Z,54.55
2017-02-24T04:04:31.857Z,54.36
2017-02-24T04:05:42.047Z,54.16
2017-02-24T04:06:52.265Z,54.07
2017-02-24T04:08:02.034Z,54.26
2017-02-24T04:09:12.243Z,54.36
2017-02-24T04:10:22.055Z,54.26
2017-02-24T04:11:31.421Z,55.02
2017-02-24T04:12:40.750Z,55.02
2017-02-24T04:13:50.516Z,54.07
2017-02-24T04:15:00.708Z,54.93
2017-02-24T04:16:10.101Z,54.16
2017-02-24T04:17:20.306Z,54.16
2017-02-24T04:18:29.644Z,54.16
2017-02-24T04:19:39.406Z,54.07
2017-02-24T04:20:50.030Z,54.64
2017-02-24T04:21:59.602Z,54.74
2017-02-24T04:23:09.786Z,54.83
2017-02-24T04:24:19.553Z,54.83
2017-02-24T04:25:29.306Z,54.74
2017-02-24T04:26:38.621Z,54.93
2017-02-24T04:27:48.420Z,54.93
2017-02-24T04:28:57.729Z,54.36
2017-02-24T04:30:07.482Z,54.55
2017-02-24T04:31:16.791Z,54.64
2017-02-24T04:32:26.113Z,54.64
2017-02-24T04:33:35.922Z,54.83
2017-02-24T04:34:45.236Z,54.55
2017-02-24T04:35:54.548Z,54.64
2017-02-24T04:37:04.296Z,54.45
2017-02-24T04:38:14.055Z,54.55
2017-02-24T04:39:24.320Z,54.64
2017-02-24T04:40:33.629Z,54.55
2017-02-24T04:41:42.942Z,54.55
2017-02-24T04:42:52.720Z,54.55
2017-02-24T04:44:02.933Z,54.64
2017-02-24T04:45:12.745Z,54.64
2017-02-24T04:46:22.934Z,54.74
2017-02-24T04:47:32.253Z,54.74
2017-02-24T04:48:42.001Z,54.83
2017-02-24T04:49:51.323Z,54.64
2017-02-24T04:51:00.699Z,54.64
2017-02-24T04:52:10.497Z,54.55
2017-02-24T04:53:20.261Z,55.31
2017-02-24T04:54:30.014Z,55.31
2017-02-24T04:55:40.633Z,54.64
2017-02-24T04:56:50.885Z,54.83
2017-02-24T04:58:00.191Z,54.83
2017-02-24T04:59:09.943Z,55.02
2017-02-24T05:00:20.150Z,54.93
2017-02-24T05:01:29.939Z,54.93
2017-02-24T05:02:39.296Z,55.02
2017-02-24T05:03:48.614Z,55.02
2017-02-24T05:04:58.370Z,55.02
2017-02-24T05:06:07.682Z,54.93
2017-02-24T05:07:17.009Z,54.93
2017-02-24T05:08:26.830Z,54.74
2017-02-24T05:09:36.575Z,54.74
2017-02-24T05:10:46.335Z,55.02
2017-02-24T05:11:55.644Z,54.83
2017-02-24T05:13:06.698Z,54.83
2017-02-24T05:14:16.956Z,54.83
2017-02-24T05:15:26.721Z,54.74
2017-02-24T05:16:36.911Z,55.02
2017-02-24T05:17:46.231Z,55.02
2017-02-24T05:18:55.984Z,55.02
2017-02-24T05:20:05.790Z,54.83
2017-02-24T05:21:16.023Z,54.83
2017-02-24T05:22:25.771Z,55.02
2017-02-24T05:23:35.532Z,54.83
2017-02-24T05:24:45.745Z,54.83
2017-02-24T05:25:55.562Z,54.8
2017-02-24T05:27:06.181Z,54.83
2017-02-24T05:28:15.502Z,54.9
2017-02-24T05:29:24.824Z,54.64
2017-02-24T05:30:34.135Z,55
2017-02-24T05:31:43.945Z,54.8
2017-02-24T05:32:53.261Z,54.74
2017-02-24T05:34:03.032Z,55.1
2017-02-24T05:35:12.344Z,54.9
2017-02-24T05:36:22.113Z,55.19
2017-02-24T05:37:31.919Z,54.71
2017-02-24T05:38:41.689Z,54.71
2017-02-24T05:39:51.450Z,54.8
2017-02-24T05:41:01.628Z,54.9
2017-02-24T05:42:11.367Z,55.1
2017-02-24T05:43:21.594Z,55.1
2017-02-24T05:44:31.351Z,55
2017-02-24T05:45:41.551Z,55
2017-02-24T05:46:51.725Z,54.8
2017-02-24T05:48:01.473Z,54.8
2017-02-24T05:49:11.732Z,54.8
2017-02-24T05:50:21.500Z,55
2017-02-24T05:51:31.693Z,54.71
2017-02-24T05:52:41.434Z,55.29
2017-02-24T05:53:51.621Z,54.71
2017-02-24T05:55:01.860Z,54.8
2017-02-24T05:56:11.235Z,54.9
2017-02-24T05:57:21.453Z,55.1
2017-02-24T05:58:31.658Z,54.8
2017-02-24T05:59:41.462Z,55.1
2017-02-24T06:00:51.700Z,54.71
2017-02-24T06:02:01.009Z,54.83
2017-02-24T06:03:10.762Z,54.9
2017-02-24T06:04:20.548Z,55.38
2017-02-24T06:05:30.297Z,55.47
2017-02-24T06:06:40.130Z,55.57
2017-02-24T06:07:49.469Z,55.38
2017-02-24T06:08:58.797Z,55.47
2017-02-24T06:10:09.015Z,55.47
2017-02-24T06:11:19.208Z,55.38
2017-02-24T06:12:29.029Z,55.19
2017-02-24T06:13:38.354Z,55.38
2017-02-24T06:14:48.542Z,55.29
2017-02-24T06:15:58.732Z,55.38
2017-02-24T06:17:08.522Z,55.38
2017-02-24T06:18:18.310Z,55.47
2017-02-24T06:19:28.055Z,55.29
2017-02-24T06:20:37.833Z,55.19
2017-02-24T06:21:47.594Z,55.47
2017-02-24T06:22:57.352Z,55.47
2017-02-24T06:24:06.744Z,55.29
2017-02-24T06:25:16.495Z,55.29
2017-02-24T06:26:25.824Z,55.47
2017-02-24T06:27:35.605Z,55.96
2017-02-24T06:28:45.369Z,55.86
2017-02-24T06:29:54.734Z,56.24
2017-02-24T06:31:04.925Z,56.15
2017-02-24T06:32:14.666Z,56.05
2017-02-24T06:33:24.426Z,56.05
2017-02-24T06:34:34.228Z,55.47
2017-02-24T06:35:44.122Z,56.15
2017-02-24T06:36:53.883Z,56.05
2017-02-24T06:38:03.700Z,55.96
2017-02-24T06:39:13.008Z,55.76
2017-02-24T06:40:22.813Z,55.86
2017-02-24T06:41:33.072Z,55.76
2017-02-24T06:42:42.437Z,55.67
2017-02-24T06:43:52.637Z,55.96
2017-02-24T06:45:02.832Z,55.76
2017-02-24T06:46:13.027Z,55.86
2017-02-24T06:47:23.254Z,55.96
2017-02-24T06:48:33.014Z,55.96
2017-02-24T06:49:42.776Z,56.15
2017-02-24T06:50:52.954Z,55.47
2017-02-24T06:52:03.171Z,55.19
2017-02-24T06:53:12.980Z,55.29
2017-02-24T06:54:22.722Z,55.29
2017-02-24T06:55:32.490Z,55.38
2017-02-24T06:56:41.804Z,55.29
2017-02-24T06:57:51.153Z,55.29
2017-02-24T06:59:01.491Z,55.38
2017-02-24T07:00:11.271Z,55.29
2017-02-24T07:01:20.621Z,55.19
2017-02-24T07:02:30.390Z,55.19
2017-02-24T07:03:39.707Z,55.29
2017-02-24T07:04:49.084Z,55.31
2017-02-24T07:05:59.288Z,55.29
2017-02-24T07:07:09.511Z,55.38
2017-02-24T07:08:18.856Z,55.6
2017-02-24T07:09:28.182Z,55.47
2017-02-24T07:10:37.973Z,55.47
2017-02-24T07:11:48.167Z,55.29
2017-02-24T07:12:57.472Z,55.19
2017-02-24T07:14:06.806Z,55.38
2017-02-24T07:15:16.562Z,55.29
2017-02-24T07:16:26.393Z,55.38
2017-02-24T07:17:37.034Z,55.38
2017-02-24T07:18:46.339Z,55.96
2017-02-24T07:19:55.645Z,55.57
2017-02-24T07:21:06.280Z,55.57
2017-02-24T07:22:16.522Z,55.67
2017-02-24T07:23:26.272Z,55.47
2017-02-24T07:24:35.581Z,55.67
2017-02-24T07:25:45.781Z,55.69
2017-02-24T07:26:55.542Z,55.79
2017-02-24T07:28:05.349Z,55.79
2017-02-24T07:29:14.663Z,55.79
2017-02-24T07:30:25.210Z,56.08
2017-02-24T07:31:35.569Z,55.31
2017-02-24T07:32:44.886Z,55.41
2017-02-24T07:33:54.245Z,55.41
2017-02-24T07:35:04.420Z,55.12
2017-02-24T07:36:14.613Z,55.41
2017-02-24T07:37:24.367Z,55.51
2017-02-24T07:38:34.600Z,55.98
2017-02-24T07:39:43.957Z,55.98
2017-02-24T07:40:53.297Z,55.88
2017-02-24T07:42:03.486Z,55.79
2017-02-24T07:43:13.254Z,55.6
2017-02-24T07:44:22.558Z,55.79
2017-02-24T07:45:32.359Z,55.69
2017-02-24T07:46:41.676Z,55.69
2017-02-24T07:47:51.562Z,55.69
2017-02-24T07:49:00.891Z,55.88
2017-02-24T07:50:10.659Z,55.88
2017-02-24T07:51:22.844Z,55.51
2017-02-24T07:52:37.210Z,55.98
2017-02-24T07:53:47.400Z,55.6
2017-02-24T07:54:57.161Z,55.98
2017-02-24T07:56:06.494Z,55.79
2017-02-24T07:57:15.867Z,55.6
2017-02-24T07:58:25.624Z,55.51
2017-02-24T07:59:35.398Z,55.41
2017-02-24T08:00:45.599Z,55.51
2017-02-24T08:01:54.919Z,55.51
2017-02-24T08:03:04.305Z,55.69
2017-02-24T08:04:14.086Z,55.6
2017-02-24T08:05:24.280Z,56.08
2017-02-24T08:06:33.592Z,55.79
2017-02-24T08:07:42.905Z,55.98
2017-02-24T08:08:53.582Z,55.6
2017-02-24T08:10:04.244Z,55.6
2017-02-24T08:11:14.000Z,55.51
2017-02-24T08:12:23.333Z,55.98
2017-02-24T08:13:32.659Z,55.69
2017-02-24T08:14:42.459Z,55.69
2017-02-24T08:15:52.245Z,55.41
2017-02-24T08:17:01.558Z,55.41
2017-02-24T08:18:12.212Z,55.51
2017-02-24T08:19:21.544Z,55.22
2017-02-24T08:20:31.361Z,55.6
2017-02-24T08:21:41.986Z,55.69
2017-02-24T08:22:52.185Z,54.74
2017-02-24T08:24:01.499Z,54.74
2017-02-24T08:25:11.258Z,54.93
2017-02-24T08:26:20.629Z,55.02
2017-02-24T08:27:30.392Z,54.74
2017-02-24T08:28:40.151Z,54.64
2017-02-24T08:29:49.468Z,54.74
2017-02-24T08:30:58.772Z,54.57
2017-02-24T08:32:08.600Z,54.67
2017-02-24T08:33:17.932Z,54.96
2017-02-24T08:34:28.149Z,54.36
2017-02-24T08:35:37.458Z,54.16
2017-02-24T08:36:47.210Z,55.15
2017-02-24T08:37:57.020Z,54.48
2017-02-24T08:39:06.330Z,54.19
2017-02-24T08:40:15.659Z,54.1
2017-02-24T08:41:25.415Z,54.19
2017-02-24T08:42:34.722Z,54.38
2017-02-24T08:43:44.525Z,54.19
2017-02-24T08:44:54.700Z,54.36
2017-02-24T08:46:05.357Z,54.38
2017-02-24T08:47:14.677Z,54.19
2017-02-24T08:48:24.442Z,54
2017-02-24T08:49:34.260Z,54
2017-02-24T08:50:43.585Z,54
2017-02-24T08:51:53.366Z,54
2017-02-24T08:53:03.102Z,53.81
2017-02-24T08:54:13.297Z,53.91
2017-02-24T08:55:23.658Z,53.81
2017-02-24T08:56:33.427Z,54
2017-02-24T08:57:43.187Z,53.81
2017-02-24T08:58:53.378Z,53.81
2017-02-24T09:00:02.719Z,53.91
2017-02-24T09:01:12.080Z,54
2017-02-24T09:02:21.849Z,54
2017-02-24T09:03:31.618Z,53.91
2017-02-24T09:04:41.387Z,54
2017-02-24T09:05:51.144Z,54
2017-02-24T09:07:00.518Z,54
2017-02-24T09:08:09.847Z,54
2017-02-24T09:09:19.200Z,53.91
2017-02-24T09:10:29.392Z,53.71
2017-02-24T09:11:39.146Z,53.81
2017-02-24T09:12:49.370Z,53.42
2017-02-24T09:13:59.555Z,53.71
2017-02-24T09:15:09.330Z,53.62
2017-02-24T09:16:19.527Z,53.04
2017-02-24T09:17:29.312Z,53.33
2017-02-24T09:18:38.677Z,53.04
2017-02-24T09:19:48.442Z,53.04
2017-02-24T09:20:57.755Z,52.95
2017-02-24T09:22:07.545Z,53.14
2017-02-24T09:23:16.930Z,53.14
2017-02-24T09:24:26.730Z,53.33
2017-02-24T09:25:36.052Z,52.4
2017-02-24T09:26:45.373Z,52.3
2017-02-24T09:27:55.110Z,52.69
2017-02-24T09:29:04.441Z,52.3
2017-02-24T09:30:13.816Z,52.01
2017-02-24T09:31:24.001Z,52.5
2017-02-24T09:32:33.791Z,52.59
2017-02-24T09:33:43.552Z,52.97
2017-02-24T09:34:53.305Z,52.97
2017-02-24T09:36:03.114Z,52.97
2017-02-24T09:37:12.874Z,53.26
2017-02-24T09:38:23.527Z,52.5
2017-02-24T09:39:33.291Z,52.3
2017-02-24T09:40:43.466Z,52.2
2017-02-24T09:41:54.163Z,52.01
2017-02-24T09:43:03.928Z,52.5
2017-02-24T09:44:13.711Z,52.5
2017-02-24T09:45:23.462Z,52.01
2017-02-24T09:46:33.657Z,51.82
2017-02-24T09:47:43.038Z,51.82
2017-02-24T09:48:52.359Z,52.11
2017-02-24T09:50:02.105Z,51.92
2017-02-24T09:51:11.431Z,51.54
2017-02-24T09:52:20.773Z,51.44
2017-02-24T09:53:31.040Z,51.34
2017-02-24T09:54:40.813Z,51.75
2017-02-24T09:55:50.989Z,51.54
2017-02-24T09:57:01.174Z,51.63
2017-02-24T09:58:11.375Z,51.73
2017-02-24T09:59:21.626Z,51.15
2017-02-24T10:00:30.939Z,50.89
2017-02-24T10:01:41.132Z,50.7
2017-02-24T10:02:50.499Z,50.89
2017-02-24T10:04:00.241Z,50.89
2017-02-24T10:05:10.491Z,50.89
2017-02-24T10:06:19.813Z,50.7
2017-02-24T10:07:30.005Z,50.89
2017-02-24T10:08:39.331Z,50.6
2017-02-24T10:09:49.091Z,50.99
2017-02-24T10:10:58.597Z,50.79
2017-02-24T10:12:08.358Z,50.7
2017-02-24T10:13:18.113Z,51.08
2017-02-24T10:14:28.296Z,50.32
2017-02-24T10:15:37.617Z,50.32
2017-02-24T10:16:47.410Z,50.51
2017-02-24T10:17:56.719Z,50.41
2017-02-24T10:19:06.473Z,50.6
2017-02-24T10:20:16.234Z,50.32
2017-02-24T10:21:25.991Z,50.22
2017-02-24T10:22:35.803Z,49.96
2017-02-24T10:23:45.997Z,49.65
2017-02-24T10:24:55.762Z,50.05
2017-02-24T10:26:05.550Z,49.48
2017-02-24T10:27:14.864Z,49.67
2017-02-24T10:28:24.233Z,49.29
2017-02-24T10:29:33.991Z,49.1
2017-02-24T10:30:43.304Z,49.1
2017-02-24T10:31:53.076Z,48.9
2017-02-24T10:33:02.406Z,49
2017-02-24T10:34:12.206Z,49.29
2017-02-24T10:35:21.972Z,48.71
2017-02-24T10:36:31.281Z,48.8
2017-02-24T10:37:41.053Z,48.44
2017-02-24T10:38:51.257Z,48.35
2017-02-24T10:40:00.636Z,48.25
2017-02-24T10:41:11.310Z,47.58
2017-02-24T10:42:21.538Z,47.87
2017-02-24T10:43:31.293Z,47.3
2017-02-24T10:44:40.629Z,47.32
2017-02-24T10:45:50.469Z,47.03
2017-02-24T10:47:00.208Z,47.03
2017-02-24T10:48:10.414Z,46.84
2017-02-24T10:49:19.769Z,47.03
2017-02-24T10:50:29.975Z,46.07
2017-02-24T10:51:39.784Z,45.71
2017-02-24T10:52:49.126Z,46
2017-02-24T10:53:58.869Z,45.81
2017-02-24T10:55:09.516Z,45.78
2017-02-24T10:56:18.834Z,45.71
2017-02-24T10:57:28.190Z,45.14
2017-02-24T10:58:37.944Z,44.94
2017-02-24T10:59:47.711Z,45.32
2017-02-24T11:00:57.457Z,44.56
2017-02-24T11:02:06.798Z,44.46
2017-02-24T11:03:17.047Z,44.56
2017-02-24T11:04:26.357Z,44.08
2017-02-24T11:05:36.118Z,44.37
2017-02-24T11:06:45.452Z,44.37
2017-02-24T11:07:55.715Z,44.46
2017-02-24T11:09:05.958Z,44.46
2017-02-24T11:10:16.148Z,43.88
2017-02-24T11:11:25.492Z,43.7
2017-02-24T11:12:34.816Z,43.6
2017-02-24T11:13:45.465Z,43.6
2017-02-24T11:14:54.867Z,43.6
2017-02-24T11:16:04.690Z,43.7
2017-02-24T11:17:14.022Z,43.7
2017-02-24T11:18:23.763Z,43.6
2017-02-24T11:19:33.109Z,43.57
2017-02-24T11:20:43.082Z,43.96
2017-02-24T11:21:52.836Z,43.57
2017-02-24T11:23:02.607Z,43.48
2017-02-24T11:24:12.378Z,43.57
2017-02-24T11:25:22.123Z,43.87
2017-02-24T11:26:32.028Z,43.57
2017-02-24T11:27:41.792Z,43.67
2017-02-24T11:28:51.574Z,43.57
2017-02-24T11:30:01.349Z,43.77
2017-02-24T11:31:11.113Z,43.96
2017-02-24T11:32:20.938Z,43.46
2017-02-24T11:33:30.742Z,43.65
2017-02-24T11:34:40.060Z,43.55
2017-02-24T11:35:49.832Z,43.55
2017-02-24T11:37:00.017Z,43.84
2017-02-24T11:38:09.846Z,43.55
2017-02-24T11:39:19.624Z,43.55
2017-02-24T11:40:29.386Z,43.94
2017-02-24T11:41:38.741Z,43.77
2017-02-24T11:42:48.479Z,43.57
2017-02-24T11:43:58.285Z,43.19
2017-02-24T11:45:07.606Z,43
2017-02-24T11:46:17.370Z,43.1
2017-02-24T11:47:27.135Z,42.61
2017-02-24T11:48:37.316Z,42.54
2017-02-24T11:49:47.114Z,42.73
2017-02-24T11:50:56.907Z,42.06
2017-02-24T11:52:06.648Z,42.16
2017-02-24T11:53:16.854Z,42.16
2017-02-24T11:54:26.194Z,42.06
2017-02-24T11:55:36.431Z,42.06
2017-02-24T11:56:47.082Z,42.06
2017-02-24T11:57:56.854Z,42.44
2017-02-24T11:59:06.639Z,42.52
2017-02-24T12:00:16.816Z,42.52
2017-02-24T12:01:27.071Z,42.71
2017-02-24T12:02:36.836Z,42.33
2017-02-24T12:03:46.165Z,42.43
2017-02-24T12:04:55.948Z,42.52
2017-02-24T12:06:05.686Z,42.43
2017-02-24T12:07:15.499Z,42.52
2017-02-24T12:08:25.244Z,43
2017-02-24T12:09:35.446Z,43.1
2017-02-24T12:10:46.090Z,42.88
2017-02-24T12:11:56.725Z,42.9
2017-02-24T12:13:06.977Z,42.52
2017-02-24T12:14:16.735Z,42.61
2017-02-24T12:15:26.916Z,41.85
2017-02-24T12:16:36.682Z,41.85
2017-02-24T12:17:46.883Z,41.29
2017-02-24T12:18:56.268Z,41.1
2017-02-24T12:20:05.588Z,41.1
2017-02-24T12:21:14.921Z,41
2017-02-24T12:22:25.114Z,41.1
2017-02-24T12:23:35.763Z,40.73
2017-02-24T12:24:45.598Z,40.43
2017-02-24T12:25:55.362Z,40.45
2017-02-24T12:27:05.108Z,40.35
2017-02-24T12:28:14.872Z,39.97
2017-02-24T12:29:24.645Z,39.68
2017-02-24T12:30:34.043Z,39.97
2017-02-24T12:31:44.247Z,39.87
2017-02-24T12:32:54.018Z,39.78
2017-02-24T12:34:03.786Z,39.68
2017-02-24T12:35:14.419Z,40.08
2017-02-24T12:36:24.692Z,39.12
2017-02-24T12:37:35.319Z,39.12
2017-02-24T12:38:45.932Z,39.22
2017-02-24T12:39:55.253Z,38.91
2017-02-24T12:41:04.579Z,38.93
2017-02-24T12:42:14.420Z,38.93
2017-02-24T12:43:24.200Z,38.64
2017-02-24T12:44:33.537Z,38.93
2017-02-24T12:45:43.323Z,38.93
2017-02-24T12:46:52.647Z,38.74
2017-02-24T12:48:02.892Z,38.74
2017-02-24T12:49:12.651Z,38.84
2017-02-24T12:50:22.854Z,39.12
2017-02-24T12:51:32.601Z,39.03
2017-02-24T12:52:42.674Z,38.28
2017-02-24T12:53:53.591Z,38.66
2017-02-24T12:55:02.913Z,38.66
2017-02-24T12:56:13.138Z,38.66
2017-02-24T12:57:22.470Z,38.66
2017-02-24T12:58:32.470Z,38.66
2017-02-24T12:59:43.289Z,38.76
2017-02-24T13:00:53.821Z,38.47
2017-02-24T13:02:05.742Z,38.47
2017-02-24T13:03:17.029Z,38.56
2017-02-24T13:04:27.517Z,38.85
2017-02-24T13:05:37.873Z,38.95
2017-02-24T13:06:49.519Z,38.85
2017-02-24T13:08:00.496Z,38.28
2017-02-24T13:09:10.611Z,39.04
2017-02-24T13:10:20.952Z,38.76
2017-02-24T13:11:31.205Z,38.49
2017-02-24T13:12:40.974Z,38.66
2017-02-24T13:13:50.316Z,38.47
2017-02-24T13:14:59.633Z,39.14
2017-02-24T13:16:09.844Z,38.66
2017-02-24T13:17:20.283Z,38.85
2017-02-24T13:18:30.052Z,39.14
2017-02-24T13:19:39.836Z,38.37
2017-02-24T13:20:50.023Z,38.76
2017-02-24T13:21:59.553Z,39.04
2017-02-24T13:23:09.415Z,38.47
2017-02-24T13:24:19.186Z,39.14
2017-02-24T13:25:28.498Z,39.04
2017-02-24T13:26:37.829Z,38.95
2017-02-24T13:27:47.138Z,38.66
2017-02-24T13:28:56.946Z,38.66
2017-02-24T13:30:06.703Z,38.95
2017-02-24T13:31:16.469Z,38.85
2017-02-24T13:32:26.251Z,39.04
2017-02-24T13:33:36.864Z,38.66
2017-02-24T13:34:46.386Z,38.95
2017-02-24T13:35:55.706Z,38.66
2017-02-24T13:37:05.463Z,38.95
2017-02-24T13:38:15.664Z,38.78
2017-02-24T13:39:25.865Z,38.87
2017-02-24T13:40:35.694Z,38.59
2017-02-24T13:41:45.027Z,38.59
2017-02-24T13:42:55.232Z,38.49
2017-02-24T13:44:05.010Z,38.95
2017-02-24T13:45:14.359Z,38.49
2017-02-24T13:46:24.948Z,38.68
2017-02-24T13:47:34.785Z,38.59
2017-02-24T13:48:44.629Z,37.91
2017-02-24T13:49:54.875Z,38.29
2017-02-24T13:51:04.657Z,38.29
2017-02-24T13:52:14.022Z,38.1
2017-02-24T13:53:24.287Z,37.91
2017-02-24T13:54:33.779Z,38.2
2017-02-24T13:55:43.205Z,38.1
2017-02-24T13:56:53.038Z,38.29
2017-02-24T13:58:02.990Z,38.29
2017-02-24T13:59:12.759Z,38.29
2017-02-24T14:00:22.949Z,38.66
2017-02-24T14:01:32.279Z,38.56
2017-02-24T14:02:42.037Z,38.95
2017-02-24T14:03:52.140Z,39.24
2017-02-24T14:05:02.237Z,38.66
2017-02-24T14:06:12.471Z,39.14
2017-02-24T14:07:23.104Z,39.04
2017-02-24T14:08:32.850Z,40.08
2017-02-24T14:09:42.668Z,39.61
2017-02-24T14:10:52.468Z,39.79
2017-02-24T14:12:02.850Z,39.7
2017-02-24T14:13:12.615Z,39.89
2017-02-24T14:14:21.936Z,39.79
2017-02-24T14:15:31.766Z,39.51
2017-02-24T14:16:41.535Z,39.99
2017-02-24T14:17:51.283Z,40.06
2017-02-24T14:19:01.477Z,40.25
2017-02-24T14:20:11.222Z,40.25
2017-02-24T14:21:21.012Z,40.35
2017-02-24T14:22:30.323Z,40.45
2017-02-24T14:23:40.089Z,40.45
2017-02-24T14:24:49.847Z,41.22
2017-02-24T14:26:00.057Z,41.22
2017-02-24T14:27:10.315Z,41.02
2017-02-24T14:28:19.631Z,41.1
2017-02-24T14:29:29.410Z,41.02
2017-02-24T14:30:38.753Z,41.1
2017-02-24T14:31:48.507Z,41.1
2017-02-24T14:32:57.870Z,40.62
2017-02-24T14:34:07.621Z,40.81
2017-02-24T14:35:17.811Z,41.1
2017-02-24T14:36:27.576Z,41.1
2017-02-24T14:37:37.336Z,41.29
2017-02-24T14:38:47.592Z,41
2017-02-24T14:39:57.363Z,41.39
2017-02-24T14:41:07.144Z,41.29
2017-02-24T14:42:16.477Z,41.46
2017-02-24T14:43:26.255Z,41.49
2017-02-24T14:44:36.491Z,41.49
2017-02-24T14:45:45.813Z,41.2
2017-02-24T14:46:55.132Z,41.56
2017-02-24T14:48:05.334Z,41.27
2017-02-24T14:49:15.561Z,41.27
2017-02-24T14:50:25.365Z,41.17
2017-02-24T14:51:36.875Z,41.37
2017-02-24T14:52:46.631Z,40.99
2017-02-24T14:53:56.386Z,41.37
2017-02-24T14:55:05.699Z,40.89
2017-02-24T14:56:15.500Z,41.08
2017-02-24T14:57:25.245Z,41.08
2017-02-24T14:58:35.867Z,41.17
2017-02-24T14:59:45.616Z,41.17
2017-02-24T15:00:55.377Z,41.08
2017-02-24T15:02:05.172Z,41.27
2017-02-24T15:03:14.951Z,41.17
2017-02-24T15:04:24.274Z,40.99